createdAt,value
2023-03-14T00:01:21.295Z,92767.00
2023-03-14T00:03:50.877Z,92753.00
2023-03-14T00:06:19.380Z,92716.00
2023-03-14T00:08:46.805Z,92723.00
2023-03-14T00:11:20.800Z,92709.00
2023-03-14T00:13:51.843Z,92724.00
2023-03-14T00:16:19.730Z,92707.00
2023-03-14T00:18:46.690Z,92724.00
2023-03-14T00:21:14.028Z,92712.00
2023-03-14T00:23:42.508Z,92715.00
2023-03-14T00:26:13.144Z,92717.00
2023-03-14T00:28:41.233Z,92716.00
2023-03-14T00:31:11.281Z,92722.00
2023-03-14T00:33:40.431Z,92721.00
2023-03-14T00:36:12.341Z,92702.00
2023-03-14T00:38:43.243Z,92729.00
2023-03-14T00:41:17.643Z,92733.00
2023-03-14T00:43:45.293Z,92720.00
2023-03-14T00:46:12.982Z,92713.00
2023-03-14T00:48:40.198Z,92716.00
2023-03-14T00:51:10.085Z,92708.00
2023-03-14T00:53:39.074Z,92692.00
2023-03-14T00:56:10.295Z,92688.00
2023-03-14T00:58:37.444Z,92685.00
2023-03-14T01:01:20.476Z,92681.00
2023-03-14T01:03:52.607Z,92685.00
2023-03-14T01:06:28.863Z,92690.00
2023-03-14T01:09:00.203Z,92675.00
2023-03-14T01:11:33.156Z,92666.00
2023-03-14T01:14:00.958Z,92665.00
2023-03-14T01:16:34.638Z,92671.00
2023-03-14T01:19:04.267Z,92678.00
2023-03-14T01:21:34.452Z,92689.00
2023-03-14T01:24:03.891Z,92679.00
2023-03-14T01:26:33.996Z,92677.00
2023-03-14T01:29:01.231Z,92672.00
2023-03-14T01:31:28.785Z,92679.00
2023-03-14T01:33:55.821Z,92670.00
2023-03-14T01:36:24.929Z,92665.00
2023-03-14T01:38:54.202Z,92665.00
2023-03-14T01:41:26.207Z,92655.00
2023-03-14T01:43:55.969Z,92653.00
2023-03-14T01:46:53.307Z,92633.00
2023-03-14T01:49:32.833Z,92641.00
2023-03-14T01:52:04.116Z,92635.00
2023-03-14T01:54:46.154Z,92613.00
2023-03-14T01:57:22.749Z,92621.00
2023-03-14T01:59:59.446Z,92619.00
2023-03-14T02:02:28.312Z,92612.00
2023-03-14T02:05:00.136Z,92590.00
2023-03-14T02:07:41.953Z,92595.00
2023-03-14T02:10:10.470Z,92598.00
2023-03-14T02:12:38.680Z,92593.00
2023-03-14T02:15:08.598Z,92603.00
2023-03-14T02:17:36.799Z,92596.00
2023-03-14T02:20:27.020Z,92590.00
2023-03-14T02:22:54.483Z,92604.00
2023-03-14T02:25:53.013Z,92587.00
2023-03-14T02:28:20.388Z,92577.00
2023-03-14T02:30:52.789Z,92572.00
2023-03-14T02:33:25.042Z,92572.00
2023-03-14T02:36:01.568Z,92582.00
2023-03-14T02:39:09.620Z,92584.00
2023-03-14T02:41:36.469Z,92586.00
2023-03-14T02:44:03.419Z,92560.00
2023-03-14T02:46:30.595Z,92563.00
2023-03-14T02:49:08.696Z,92548.00
2023-03-14T02:51:39.381Z,92553.00
2023-03-14T02:54:09.684Z,92556.00
2023-03-14T02:56:38.996Z,92561.00
2023-03-14T02:59:09.145Z,92554.00
2023-03-14T03:01:38.653Z,92554.00
2023-03-14T03:04:05.955Z,92544.00
2023-03-14T03:06:32.855Z,92545.00
2023-03-14T03:08:59.737Z,92543.00
2023-03-14T03:11:26.578Z,92546.00
2023-03-14T03:13:55.489Z,92541.00
2023-03-14T03:16:24.504Z,92530.00
2023-03-14T03:18:51.377Z,92521.00
2023-03-14T03:21:18.778Z,92528.00
2023-03-14T03:23:45.780Z,92515.00
2023-03-14T03:26:12.699Z,92513.00
2023-03-14T03:28:39.625Z,92525.00
2023-03-14T03:31:12.020Z,92520.00
2023-03-14T03:33:41.600Z,92513.00
2023-03-14T03:36:09.885Z,92505.00
2023-03-14T03:38:37.214Z,92514.00
2023-03-14T03:41:08.426Z,92515.00
2023-03-14T03:43:35.277Z,92513.00
2023-03-14T03:46:07.172Z,92516.00
2023-03-14T03:48:35.202Z,92512.00
2023-03-14T03:51:02.287Z,92510.00
2023-03-14T03:53:33.820Z,92507.00
2023-03-14T03:56:03.442Z,92522.00
2023-03-14T03:58:39.863Z,92516.00
2023-03-14T04:01:07.996Z,92519.00
2023-03-14T04:03:36.184Z,92511.00
2023-03-14T04:06:07.541Z,92516.00
2023-03-14T04:08:34.469Z,92515.00
2023-03-14T04:11:03.222Z,92511.00
2023-03-14T04:13:30.606Z,92502.00
2023-03-14T04:15:58.009Z,92514.00
2023-03-14T04:18:30.461Z,92503.00
2023-03-14T04:20:59.023Z,92501.00
2023-03-14T04:23:27.324Z,92488.00
2023-03-14T04:25:54.827Z,92495.00
2023-03-14T04:28:21.787Z,92485.00
2023-03-14T04:30:51.073Z,92489.00
2023-03-14T04:33:20.388Z,92493.00
2023-03-14T04:35:48.393Z,92489.00
2023-03-14T04:38:15.340Z,92486.00
2023-03-14T04:40:45.294Z,92491.00
2023-03-14T04:43:14.666Z,92489.00
2023-03-14T04:45:44.895Z,92481.00
2023-03-14T04:48:11.840Z,92479.00
2023-03-14T04:50:38.648Z,92473.00
2023-03-14T04:53:10.684Z,92471.00
2023-03-14T04:55:39.786Z,92467.00
2023-03-14T04:58:11.679Z,92467.00
2023-03-14T05:00:39.833Z,92465.00
2023-03-14T05:03:06.790Z,92459.00
2023-03-14T05:05:38.718Z,92461.00
2023-03-14T05:08:05.712Z,92447.00
2023-03-14T05:10:32.604Z,92451.00
2023-03-14T05:13:02.018Z,92452.00
2023-03-14T05:15:33.651Z,92454.00
2023-03-14T05:18:00.434Z,92445.00
2023-03-14T05:20:32.004Z,92440.00
2023-03-14T05:22:58.813Z,92440.00
2023-03-14T05:25:25.739Z,92440.00
2023-03-14T05:27:57.214Z,92427.00
2023-03-14T05:30:24.206Z,92426.00
2023-03-14T05:32:53.669Z,92433.00
2023-03-14T05:35:23.212Z,92413.00
2023-03-14T05:37:50.114Z,92410.00
2023-03-14T05:40:17.277Z,92416.00
2023-03-14T05:42:44.170Z,92413.00
2023-03-14T05:45:11.678Z,92412.00
2023-03-14T05:47:38.539Z,92405.00
2023-03-14T05:50:06.016Z,92411.00
2023-03-14T05:52:32.993Z,92410.00
2023-03-14T05:54:59.880Z,92395.00
2023-03-14T05:57:29.514Z,92399.00
2023-03-14T05:59:56.413Z,92391.00
2023-03-14T06:02:23.331Z,92389.00
2023-03-14T06:04:50.300Z,92372.00
2023-03-14T06:07:17.177Z,92374.00
2023-03-14T06:09:46.355Z,92372.00
2023-03-14T06:12:13.259Z,92377.00
2023-03-14T06:14:40.156Z,92386.00
2023-03-14T06:17:07.019Z,92382.00
2023-03-14T06:19:36.469Z,92393.00
2023-03-14T06:22:03.355Z,92385.00
2023-03-14T06:24:32.738Z,92378.00
2023-03-14T06:26:59.616Z,92357.00
2023-03-14T06:29:28.790Z,92365.00
2023-03-14T06:32:01.007Z,92355.00
2023-03-14T06:34:27.940Z,92350.00
2023-03-14T06:36:54.830Z,92362.00
2023-03-14T06:39:23.907Z,92359.00
2023-03-14T06:41:50.768Z,92356.00
2023-03-14T06:44:20.815Z,92353.00
2023-03-14T06:46:47.770Z,92342.00
2023-03-14T06:49:14.827Z,92337.00
2023-03-14T06:51:41.754Z,92340.00
2023-03-14T06:54:08.694Z,92345.00
2023-03-14T06:56:35.587Z,92350.00
2023-03-14T06:59:07.110Z,92345.00
2023-03-14T07:01:36.040Z,92349.00
2023-03-14T07:04:09.051Z,92339.00
2023-03-14T07:06:38.706Z,92352.00
2023-03-14T07:09:10.513Z,92363.00
2023-03-14T07:11:37.591Z,92371.00
2023-03-14T07:14:07.173Z,92375.00
2023-03-14T07:16:34.117Z,92374.00
2023-03-14T07:19:02.242Z,92367.00
2023-03-14T07:21:32.916Z,92370.00
2023-03-14T07:23:59.752Z,92365.00
2023-03-14T07:26:26.696Z,92361.00
2023-03-14T07:28:53.637Z,92357.00
2023-03-14T07:31:22.738Z,92363.00
2023-03-14T07:33:49.861Z,92352.00
2023-03-14T07:36:19.506Z,92348.00
2023-03-14T07:38:46.482Z,92353.00
2023-03-14T07:41:16.354Z,92342.00
2023-03-14T07:43:43.261Z,92355.00
2023-03-14T07:46:10.409Z,92342.00
2023-03-14T07:48:37.312Z,92354.00
2023-03-14T07:51:08.988Z,92345.00
2023-03-14T07:53:39.174Z,92361.00
2023-03-14T07:56:11.565Z,92353.00
2023-03-14T07:58:41.512Z,92358.00
2023-03-14T08:01:08.513Z,92351.00
2023-03-14T08:03:40.138Z,92349.00
2023-03-14T08:06:09.845Z,92349.00
2023-03-14T08:08:36.848Z,92358.00
2023-03-14T08:11:09.787Z,92358.00
2023-03-14T08:13:38.922Z,92365.00
2023-03-14T08:16:06.625Z,92376.00
2023-03-14T08:18:33.748Z,92367.00
2023-03-14T08:21:00.649Z,92372.00
2023-03-14T08:23:29.893Z,92371.00
2023-03-14T08:26:01.434Z,92374.00
2023-03-14T08:28:33.424Z,92377.00
2023-03-14T08:31:03.747Z,92382.00
2023-03-14T08:33:30.859Z,92392.00
2023-03-14T08:36:03.183Z,92402.00
2023-03-14T08:38:30.197Z,92395.00
2023-03-14T08:41:04.859Z,92403.00
2023-03-14T08:43:34.230Z,92402.00
2023-03-14T08:46:02.167Z,92407.00
2023-03-14T08:48:32.242Z,92408.00
2023-03-14T08:51:14.841Z,92404.00
2023-03-14T08:53:42.831Z,92397.00
2023-03-14T08:56:11.218Z,92419.00
2023-03-14T08:58:39.060Z,92417.00
2023-03-14T09:01:11.353Z,92412.00
2023-03-14T09:03:39.321Z,92413.00
2023-03-14T09:06:11.044Z,92413.00
2023-03-14T09:08:40.346Z,92409.00
2023-03-14T09:11:12.925Z,92423.00
2023-03-14T09:13:39.923Z,92429.00
2023-03-14T09:16:08.321Z,92429.00
2023-03-14T09:18:35.381Z,92428.00
2023-03-14T09:21:05.021Z,92427.00
2023-03-14T09:23:34.674Z,92426.00
2023-03-14T09:26:04.310Z,92429.00
2023-03-14T09:28:31.447Z,92429.00
2023-03-14T09:31:00.994Z,92436.00
2023-03-14T09:33:29.935Z,92424.00
2023-03-14T09:36:02.210Z,92427.00
2023-03-14T09:38:29.532Z,92435.00
2023-03-14T09:41:02.941Z,92445.00
2023-03-14T09:43:33.017Z,92444.00
2023-03-14T09:46:03.174Z,92441.00
2023-03-14T09:48:33.823Z,92431.00
2023-03-14T09:51:15.457Z,92441.00
2023-03-14T09:53:45.509Z,92450.00
2023-03-14T09:56:33.628Z,92447.00
2023-03-14T09:59:05.382Z,92457.00
2023-03-14T10:01:36.919Z,92455.00
2023-03-14T10:04:20.234Z,92461.00
2023-03-14T10:06:49.865Z,92456.00
2023-03-14T10:09:26.263Z,92463.00
2023-03-14T10:12:08.911Z,92462.00
2023-03-14T10:14:45.336Z,92462.00
2023-03-14T10:17:17.928Z,92466.00
2023-03-14T10:20:00.296Z,92462.00
2023-03-14T10:22:32.076Z,92454.00
2023-03-14T10:25:05.716Z,92455.00
2023-03-14T10:27:39.120Z,92467.00
2023-03-14T10:30:17.554Z,92470.00
2023-03-14T10:32:52.108Z,92475.00
2023-03-14T10:35:21.932Z,92470.00
2023-03-14T10:38:05.957Z,92475.00
2023-03-14T10:40:41.536Z,92472.00
2023-03-14T10:43:18.213Z,92477.00
2023-03-14T10:45:53.509Z,92480.00
2023-03-14T10:48:38.603Z,92484.00
2023-03-14T10:51:25.539Z,92481.00
2023-03-14T10:54:07.196Z,92477.00
2023-03-14T10:56:42.870Z,92482.00
2023-03-14T10:59:17.050Z,92498.00
2023-03-14T11:02:37.505Z,92497.00
2023-03-14T11:05:34.908Z,92500.00
2023-03-14T11:08:10.968Z,92489.00
2023-03-14T11:10:44.652Z,92520.00
2023-03-14T11:13:36.869Z,92517.00
2023-03-14T11:16:52.043Z,92519.00
2023-03-14T11:20:14.556Z,92523.00
2023-03-14T11:23:23.627Z,92526.00
2023-03-14T11:26:01.682Z,92525.00
2023-03-14T11:28:46.647Z,92539.00
2023-03-14T11:31:30.842Z,92544.00
2023-03-14T11:34:02.037Z,92549.00
2023-03-14T11:36:39.852Z,92552.00
2023-03-14T11:39:19.110Z,92550.00
2023-03-14T11:41:53.865Z,92560.00
2023-03-14T11:44:40.741Z,92552.00
2023-03-14T11:47:19.455Z,92561.00
2023-03-14T11:49:55.235Z,92567.00
2023-03-14T11:52:31.525Z,92567.00
2023-03-14T11:55:08.897Z,92561.00
2023-03-14T11:57:36.304Z,92569.00
2023-03-14T12:00:22.924Z,92563.00
2023-03-14T12:03:31.431Z,92564.00
2023-03-14T12:06:22.542Z,92566.00
2023-03-14T12:09:11.907Z,92570.00
2023-03-14T12:11:57.776Z,92568.00
2023-03-14T12:14:34.969Z,92573.00
2023-03-14T12:17:16.070Z,92583.00
2023-03-14T12:19:48.117Z,92578.00
2023-03-14T12:22:34.550Z,92573.00
2023-03-14T12:25:06.760Z,92586.00
2023-03-14T12:27:48.516Z,92584.00
2023-03-14T12:30:39.081Z,92607.00
2023-03-14T12:33:18.203Z,92614.00
2023-03-14T12:35:46.542Z,92612.00
2023-03-14T12:38:29.226Z,92686.00
2023-03-14T12:41:21.083Z,92693.00
2023-03-14T12:43:47.918Z,92699.00
2023-03-14T12:46:28.588Z,92711.00
2023-03-14T12:49:06.496Z,92723.00
2023-03-14T12:51:39.068Z,92727.00
2023-03-14T12:54:27.959Z,92744.00
2023-03-14T12:57:26.659Z,92749.00
2023-03-14T13:00:01.113Z,92762.00
2023-03-14T13:02:44.920Z,92778.00
2023-03-14T13:05:20.970Z,92783.00
2023-03-14T13:07:47.795Z,92792.00
2023-03-14T13:10:27.788Z,92794.00
2023-03-14T13:13:11.854Z,92814.00
2023-03-14T13:15:42.734Z,92821.00
2023-03-14T13:18:29.917Z,92846.00
2023-03-14T13:21:03.928Z,92830.00
2023-03-14T13:23:36.794Z,92849.00
2023-03-14T13:26:07.032Z,92858.00
2023-03-14T13:28:38.601Z,92854.00
2023-03-14T13:31:07.142Z,92860.00
2023-03-14T13:33:35.888Z,92856.00
2023-03-14T13:36:06.209Z,92870.00
2023-03-14T13:38:39.897Z,92872.00
2023-03-14T13:41:09.231Z,92894.00
2023-03-14T13:43:42.162Z,92885.00
2023-03-14T13:46:17.756Z,92889.00
2023-03-14T13:48:49.739Z,92883.00
2023-03-14T13:51:19.956Z,92880.00
2023-03-14T13:53:50.027Z,92888.00
2023-03-14T13:56:25.742Z,92906.00
2023-03-14T13:58:53.394Z,92913.00
2023-03-14T14:01:36.374Z,92918.00
2023-03-14T14:04:10.561Z,92920.00
2023-03-14T14:06:49.400Z,92927.00
2023-03-14T14:09:41.002Z,92947.00
2023-03-14T14:12:22.613Z,92957.00
2023-03-14T14:14:55.736Z,92967.00
2023-03-14T14:17:42.046Z,92968.00
2023-03-14T14:20:36.012Z,92982.00
2023-03-14T14:23:32.537Z,92979.00
2023-03-14T14:26:08.616Z,92988.00
2023-03-14T14:28:39.368Z,92999.00
2023-03-14T14:31:23.080Z,93008.00
2023-03-14T14:33:59.066Z,93019.00
2023-03-14T14:36:36.426Z,93024.00
2023-03-14T14:39:27.400Z,93037.00
2023-03-14T14:41:54.946Z,93031.00
2023-03-14T14:44:39.259Z,93045.00
2023-03-14T14:47:14.389Z,93045.00
2023-03-14T14:49:41.706Z,93042.00
2023-03-14T14:52:34.032Z,93050.00
2023-03-14T14:55:12.002Z,93045.00
2023-03-14T14:57:43.268Z,93053.00
2023-03-14T15:00:21.555Z,93049.00
2023-03-14T15:02:55.496Z,93057.00
2023-03-14T15:05:31.874Z,93064.00
2023-03-14T15:07:58.869Z,93073.00
2023-03-14T15:10:26.766Z,93051.00
2023-03-14T15:12:53.934Z,93076.00
2023-03-14T15:15:23.935Z,93067.00
2023-03-14T15:17:53.504Z,93084.00
2023-03-14T15:20:21.628Z,93087.00
2023-03-14T15:22:48.586Z,93091.00
2023-03-14T15:25:40.130Z,93092.00
2023-03-14T15:28:13.964Z,93099.00
2023-03-14T15:30:43.030Z,93095.00
2023-03-14T15:33:10.608Z,93098.00
2023-03-14T15:35:38.816Z,93084.00
2023-03-14T15:38:05.775Z,93073.00
2023-03-14T15:40:32.800Z,93081.00
2023-03-14T15:43:02.055Z,93075.00
2023-03-14T15:45:28.903Z,93089.00
2023-03-14T15:47:55.841Z,93087.00
2023-03-14T15:50:23.089Z,93085.00
2023-03-14T15:52:50.012Z,93078.00
2023-03-14T15:55:17.067Z,93086.00
2023-03-14T15:57:47.337Z,93087.00
2023-03-14T16:00:22.550Z,93093.00
2023-03-14T16:02:50.167Z,93087.00
2023-03-14T16:05:19.917Z,93077.00
2023-03-14T16:07:47.550Z,93065.00
2023-03-14T16:10:18.847Z,93067.00
2023-03-14T16:12:48.670Z,93075.00
2023-03-14T16:15:20.212Z,93073.00
2023-03-14T16:17:49.883Z,93078.00
2023-03-14T16:20:20.392Z,93073.00
2023-03-14T16:22:48.328Z,93070.00
2023-03-14T16:25:15.919Z,93071.00
2023-03-14T16:27:45.623Z,93065.00
2023-03-14T16:30:14.226Z,93076.00
2023-03-14T16:32:41.207Z,93074.00
2023-03-14T16:35:08.612Z,93092.00
2023-03-14T16:37:35.492Z,93090.00
2023-03-14T16:40:17.503Z,93096.00
2023-03-14T16:43:11.278Z,93090.00
2023-03-14T16:45:31.281Z,93092.00
2023-03-14T16:47:58.226Z,93104.00
2023-03-14T16:50:25.205Z,93112.00
2023-03-14T16:52:52.177Z,93106.00
2023-03-14T16:55:19.343Z,93114.00
2023-03-14T16:57:48.700Z,93113.00
2023-03-14T17:00:16.109Z,93109.00
2023-03-14T17:02:42.961Z,93119.00
2023-03-14T17:05:09.954Z,93126.00
2023-03-14T17:07:36.819Z,93120.00
2023-03-14T17:10:03.864Z,93123.00
2023-03-14T17:12:30.773Z,93112.00
2023-03-14T17:15:00.484Z,93108.00
2023-03-14T17:17:27.421Z,93117.00
2023-03-14T17:19:54.274Z,93121.00
2023-03-14T17:22:25.165Z,93133.00
2023-03-14T17:24:56.527Z,93132.00
2023-03-14T17:27:23.355Z,93130.00
2023-03-14T17:29:50.933Z,93154.00
2023-03-14T17:32:20.306Z,93167.00
2023-03-14T17:34:47.344Z,93192.00
2023-03-14T17:37:14.257Z,93199.00
2023-03-14T17:39:41.132Z,93211.00
2023-03-14T17:42:08.463Z,93208.00
2023-03-14T17:44:35.727Z,93219.00
2023-03-14T17:47:02.809Z,93215.00
2023-03-14T17:49:29.773Z,93208.00
2023-03-14T17:51:56.780Z,93222.00
2023-03-14T17:54:23.722Z,93206.00
2023-03-14T17:56:50.643Z,93216.00
2023-03-14T17:59:20.703Z,93240.00
2023-03-14T18:01:47.726Z,93270.00
2023-03-14T18:04:17.586Z,93279.00
2023-03-14T18:06:44.773Z,93277.00
2023-03-14T18:09:11.661Z,93285.00
2023-03-14T18:11:38.522Z,93280.00
2023-03-14T18:14:08.606Z,93298.00
2023-03-14T18:16:38.154Z,93289.00
2023-03-14T18:19:05.115Z,93297.00
2023-03-14T18:21:32.036Z,93306.00
2023-03-14T18:24:05.037Z,93301.00
2023-03-14T18:26:31.921Z,93305.00
2023-03-14T18:28:59.081Z,93312.00
2023-03-14T18:31:26.110Z,93303.00
2023-03-14T18:33:56.882Z,93310.00
2023-03-14T18:36:24.036Z,93307.00
2023-03-14T18:38:56.368Z,93302.00
2023-03-14T18:41:24.380Z,93307.00
2023-03-14T18:43:53.580Z,93307.00
2023-03-14T18:46:24.113Z,93305.00
2023-03-14T18:48:56.414Z,93313.00
2023-03-14T18:51:26.138Z,93321.00
2023-03-14T18:54:02.851Z,93316.00
2023-03-14T18:56:35.175Z,93320.00
2023-03-14T18:59:02.197Z,93324.00
2023-03-14T19:01:31.559Z,93331.00
2023-03-14T19:04:03.283Z,93329.00
2023-03-14T19:06:34.065Z,93327.00
2023-03-14T19:09:02.377Z,93327.00
2023-03-14T19:11:29.331Z,93335.00
2023-03-14T19:13:56.956Z,93341.00
2023-03-14T19:16:28.653Z,93334.00
2023-03-14T19:18:55.941Z,93340.00
2023-03-14T19:21:32.339Z,93335.00
2023-03-14T19:23:59.674Z,93328.00
2023-03-14T19:26:28.712Z,93335.00
2023-03-14T19:28:58.447Z,93342.00
2023-03-14T19:31:26.113Z,93344.00
2023-03-14T19:33:55.668Z,93344.00
2023-03-14T19:36:31.917Z,93354.00
2023-03-14T19:39:06.036Z,93365.00
2023-03-14T19:41:35.837Z,93369.00
2023-03-14T19:44:05.188Z,93378.00
2023-03-14T19:46:33.367Z,93361.00
2023-03-14T19:49:00.361Z,93361.00
2023-03-14T19:51:31.259Z,93375.00
2023-03-14T19:54:03.147Z,93372.00
2023-03-14T19:56:32.609Z,93367.00
2023-03-14T19:59:03.133Z,93375.00
2023-03-14T20:01:31.700Z,93372.00
2023-03-14T20:03:58.823Z,93383.00
2023-03-14T20:06:25.776Z,93380.00
2023-03-14T20:08:52.701Z,93388.00
2023-03-14T20:11:21.731Z,93373.00
2023-03-14T20:13:48.626Z,93384.00
2023-03-14T20:16:15.806Z,93386.00
2023-03-14T20:18:43.002Z,93381.00
2023-03-14T20:21:14.232Z,93385.00
2023-03-14T20:23:44.038Z,93381.00
2023-03-14T20:26:11.473Z,93390.00
2023-03-14T20:28:38.377Z,93391.00
2023-03-14T20:31:09.785Z,93390.00
2023-03-14T20:33:38.953Z,93381.00
2023-03-14T20:36:06.440Z,93385.00
2023-03-14T20:38:34.692Z,93383.00
2023-03-14T20:41:02.191Z,93397.00
2023-03-14T20:43:31.625Z,93393.00
2023-03-14T20:46:02.627Z,93400.00
2023-03-14T20:48:33.489Z,93407.00
2023-03-14T20:51:01.636Z,93416.00
2023-03-14T20:53:28.911Z,93404.00
2023-03-14T20:55:57.384Z,93402.00
2023-03-14T20:58:27.312Z,93412.00
2023-03-14T21:00:57.111Z,93411.00
2023-03-14T21:03:27.229Z,93404.00
2023-03-14T21:05:54.367Z,93394.00
2023-03-14T21:08:24.740Z,93404.00
2023-03-14T21:10:56.054Z,93403.00
2023-03-14T21:13:24.041Z,93407.00
2023-03-14T21:15:51.106Z,93411.00
2023-03-14T21:18:18.148Z,93404.00
2023-03-14T21:20:45.225Z,93408.00
2023-03-14T21:23:13.181Z,93393.00
2023-03-14T21:25:43.245Z,93407.00
2023-03-14T21:28:12.434Z,93407.00
2023-03-14T21:30:42.170Z,93411.00
2023-03-14T21:33:09.112Z,93404.00
2023-03-14T21:35:36.241Z,93396.00
2023-03-14T21:38:03.364Z,93403.00
2023-03-14T21:40:30.244Z,93409.00
2023-03-14T21:42:59.333Z,93401.00
2023-03-14T21:45:27.257Z,93402.00
2023-03-14T21:47:55.360Z,93396.00
2023-03-14T21:50:26.343Z,93396.00
2023-03-14T21:52:56.924Z,93401.00
2023-03-14T21:55:26.756Z,93402.00
2023-03-14T21:57:57.809Z,93391.00
2023-03-14T22:00:28.521Z,93401.00
2023-03-14T22:03:12.398Z,93398.00
2023-03-14T22:05:46.045Z,93399.00
2023-03-14T22:08:15.558Z,93408.00
2023-03-14T22:10:50.836Z,93408.00
2023-03-14T22:13:20.862Z,93399.00
2023-03-14T22:15:49.031Z,93400.00
2023-03-14T22:18:20.420Z,93415.00
2023-03-14T22:20:49.998Z,93418.00
2023-03-14T22:23:17.243Z,93430.00
2023-03-14T22:25:49.306Z,93450.00
2023-03-14T22:28:18.957Z,93461.00
2023-03-14T22:30:52.539Z,93463.00
2023-03-14T22:33:22.270Z,93476.00
2023-03-14T22:35:53.559Z,93480.00
2023-03-14T22:38:22.925Z,93463.00
2023-03-14T22:40:49.885Z,93473.00
2023-03-14T22:43:16.868Z,93474.00
2023-03-14T22:45:43.881Z,93469.00
2023-03-14T22:48:10.887Z,93479.00
2023-03-14T22:50:39.789Z,93478.00
2023-03-14T22:53:06.815Z,93485.00
2023-03-14T22:55:38.466Z,93491.00
2023-03-14T22:58:05.607Z,93489.00
2023-03-14T23:00:33.711Z,93494.00
2023-03-14T23:03:01.067Z,93492.00
2023-03-14T23:05:28.113Z,93494.00
2023-03-14T23:07:55.047Z,93500.00
2023-03-14T23:10:23.150Z,93498.00
2023-03-14T23:12:50.516Z,93505.00
2023-03-14T23:15:17.529Z,93506.00
2023-03-14T23:17:45.145Z,93502.00
2023-03-14T23:20:19.188Z,93487.00
2023-03-14T23:22:51.304Z,93484.00
2023-03-14T23:25:18.726Z,93504.00
2023-03-14T23:27:46.486Z,93510.00
2023-03-14T23:30:17.559Z,93523.00
2023-03-14T23:32:44.542Z,93522.00
2023-03-14T23:35:15.252Z,93521.00
2023-03-14T23:37:42.125Z,93529.00
2023-03-14T23:40:10.247Z,93526.00
2023-03-14T23:42:39.718Z,93534.00
2023-03-14T23:45:07.493Z,93529.00
2023-03-14T23:47:34.644Z,93539.00
2023-03-14T23:50:01.537Z,93557.00
2023-03-14T23:52:28.802Z,93562.00
2023-03-14T23:54:57.941Z,93565.00
2023-03-14T23:57:27.863Z,93567.00
2023-03-14T23:59:56.857Z,93575.00
